Time;durP1;ratioP1;P1;durP2;ratioP2;P2;SDS_P1;SDS_P2;PMS_P1;PMS_P2;Temp;Humidity;BMP_temperature;BMP_pressure;BME280_temperature;BME280_humidity;BME280_pressure;Samples;Min_cycle;Max_cycle;Signal;HPM_P1;HPM_P2
2021/12/03 00:01:25;;;;;;;53.90;10.93;;;7.30;90.80;;;;;;5026741;28;20041;-60
2021/12/03 00:03:51;;;;;;;51.13;10.77;;;7.20;90.80;;;;;;5010623;28;20033;-60
2021/12/03 00:06:16;;;;;;;50.20;9.48;;;7.20;90.70;;;;;;5010123;28;20032;-61
2021/12/03 00:08:42;;;;;;;41.22;9.35;;;7.20;90.70;;;;;;5044810;28;20121;-60
2021/12/03 00:11:10;;;;;;;41.83;9.75;;;7.20;90.60;;;;;;5012438;28;20027;-60
2021/12/03 00:13:36;;;;;;;40.35;9.93;;;7.20;90.60;;;;;;5027372;28;20025;-60
2021/12/03 00:16:01;;;;;;;54.78;9.10;;;7.20;90.70;;;;;;5027124;28;20529;-60
2021/12/03 00:18:27;;;;;;;41.22;9.80;;;7.10;90.80;;;;;;5026014;28;20035;-60
2021/12/03 00:20:53;;;;;;;45.78;9.35;;;7.10;90.90;;;;;;5011924;28;20082;-60
2021/12/03 00:23:19;;;;;;;37.80;9.80;;;7.10;90.80;;;;;;5044053;28;20032;-60
2021/12/03 00:25:44;;;;;;;41.95;8.80;;;7.10;90.70;;;;;;5012527;28;20070;-60
2021/12/03 00:28:10;;;;;;;34.67;9.68;;;7.10;90.60;;;;;;5042028;28;20036;-61
2021/12/03 00:30:36;;;;;;;40.22;12.52;;;7.10;90.70;;;;;;5043716;28;20482;-60
2021/12/03 00:33:03;;;;;;;48.85;12.65;;;7.10;90.60;;;;;;5011884;28;20037;-60
2021/12/03 00:35:28;;;;;;;41.88;9.52;;;7.10;90.50;;;;;;5029067;28;20408;-60
2021/12/03 00:37:54;;;;;;;31.15;9.38;;;7.00;90.50;;;;;;5011699;28;20033;-60
2021/12/03 00:40:22;;;;;;;39.05;9.40;;;7.00;90.50;;;;;;5040815;28;20669;-60
2021/12/03 00:42:48;;;;;;;31.67;8.65;;;7.00;90.40;;;;;;5026420;28;20329;-60
2021/12/03 00:45:14;;;;;;;36.33;9.25;;;7.00;90.50;;;;;;5025442;28;20028;-60
2021/12/03 00:47:40;;;;;;;37.28;8.95;;;7.00;90.40;;;;;;5011542;28;20012;-61
2021/12/03 00:50:07;;;;;;;29.08;8.32;;;7.00;90.40;;;;;;5010826;28;20027;-60
2021/12/03 00:52:32;;;;;;;32.15;8.40;;;7.00;90.30;;;;;;5025699;28;20480;-60
2021/12/03 00:54:58;;;;;;;27.48;7.78;;;6.90;90.30;;;;;;5025716;28;20183;-60
2021/12/03 00:57:23;;;;;;;24.02;6.70;;;6.90;90.20;;;;;;5042675;28;20048;-60
2021/12/03 00:59:49;;;;;;;23.17;6.10;;;6.90;90.20;;;;;;5012015;28;20071;-60
2021/12/03 01:02:16;;;;;;;29.67;6.93;;;6.90;90.00;;;;;;5011016;28;20036;-60
2021/12/03 01:04:41;;;;;;;23.55;6.22;;;6.90;89.80;;;;;;5026729;28;20025;-60
2021/12/03 01:07:07;;;;;;;22.63;6.68;;;6.90;89.80;;;;;;5013970;28;20519;-61
2021/12/03 01:09:33;;;;;;;19.58;6.65;;;6.90;89.90;;;;;;5046092;28;20368;-60
2021/12/03 01:11:59;;;;;;;23.80;6.03;;;6.80;90.00;;;;;;5030309;28;20525;-60
2021/12/03 01:14:24;;;;;;;23.50;6.13;;;7.00;90.10;;;;;;5017368;28;20036;-60
2021/12/03 01:16:50;;;;;;;24.05;6.82;;;6.80;90.00;;;;;;5033132;28;20035;-60
2021/12/03 01:19:15;;;;;;;15.70;5.38;;;6.80;89.90;;;;;;5047766;28;20048;-60
2021/12/03 01:21:41;;;;;;;18.52;6.53;;;6.80;89.90;;;;;;5048713;28;20028;-60
2021/12/03 01:24:07;;;;;;;21.95;7.15;;;6.80;89.90;;;;;;5032210;28;20135;-60
2021/12/03 01:26:34;;;;;;;23.13;7.13;;;6.80;89.90;;;;;;5033295;28;20074;-60
2021/12/03 01:28:59;;;;;;;18.92;6.28;;;6.80;90.00;;;;;;5016057;28;20025;-60
2021/12/03 01:31:25;;;;;;;23.58;7.43;;;6.80;90.00;;;;;;5029470;28;20056;-60
2021/12/03 01:33:50;;;;;;;23.60;6.70;;;6.80;90.00;;;;;;5046359;28;20392;-60
2021/12/03 01:36:16;;;;;;;26.77;6.65;;;6.70;90.00;;;;;;5013636;28;20032;-60
2021/12/03 01:38:42;;;;;;;25.60;6.50;;;6.70;90.00;;;;;;5030572;28;20033;-60
2021/12/03 01:41:08;;;;;;;32.97;7.47;;;6.80;90.10;;;;;;5047626;28;20080;-60
2021/12/03 01:43:33;;;;;;;30.30;7.13;;;6.70;90.00;;;;;;5029842;28;20108;-60
2021/12/03 01:46:01;;;;;;;25.02;6.55;;;6.70;90.10;;;;;;5012682;28;20078;-60
2021/12/03 01:48:27;;;;;;;25.67;6.30;;;6.70;90.10;;;;;;5046296;28;20033;-60
2021/12/03 01:50:52;;;;;;;34.33;6.57;;;6.70;90.20;;;;;;5045053;28;20036;-60
2021/12/03 01:53:19;;;;;;;32.58;6.85;;;6.70;90.20;;;;;;5030636;28;20553;-60
2021/12/03 01:55:45;;;;;;;25.83;6.60;;;6.70;90.10;;;;;;5013908;28;20036;-60
2021/12/03 01:58:11;;;;;;;39.10;6.88;;;6.70;90.20;;;;;;5029409;28;20484;-60
2021/12/03 02:00:39;;;;;;;38.55;6.65;;;6.70;90.40;;;;;;5028154;28;20048;-60
2021/12/03 02:03:08;;;;;;;25.85;6.13;;;6.70;90.30;;;;;;5029357;28;20032;-61
2021/12/03 02:05:33;;;;;;;21.40;5.82;;;6.70;90.30;;;;;;5013778;28;20168;-60
2021/12/03 02:07:59;;;;;;;49.28;7.68;;;6.70;90.10;;;;;;5031332;28;20523;-60
2021/12/03 02:10:25;;;;;;;24.08;6.28;;;6.60;90.10;;;;;;5029068;28;20095;-60
2021/12/03 02:12:50;;;;;;;21.85;6.95;;;6.60;90.10;;;;;;5029702;28;20495;-61
2021/12/03 02:15:16;;;;;;;29.95;5.53;;;6.60;90.10;;;;;;5012717;28;20372;-61
2021/12/03 02:17:41;;;;;;;25.52;5.07;;;6.60;90.10;;;;;;5027541;28;20051;-60
2021/12/03 02:20:08;;;;;;;31.25;6.15;;;6.60;90.10;;;;;;5031073;28;20113;-60
2021/12/03 02:22:34;;;;;;;24.00;5.30;;;6.60;90.00;;;;;;5028496;28;20033;-60
2021/12/03 02:24:59;;;;;;;27.08;6.30;;;6.60;90.00;;;;;;5011837;28;20039;-60
2021/12/03 02:27:25;;;;;;;17.95;5.75;;;6.60;90.00;;;;;;5044469;28;20036;-60
2021/12/03 02:29:50;;;;;;;21.73;5.28;;;6.60;90.00;;;;;;5013055;28;20041;-60
2021/12/03 02:32:16;;;;;;;17.27;5.53;;;6.60;90.00;;;;;;5012914;28;20036;-60
2021/12/03 02:34:41;;;;;;;18.20;5.47;;;6.60;90.00;;;;;;5045066;28;20039;-60
2021/12/03 02:37:07;;;;;;;19.27;6.28;;;6.60;90.00;;;;;;5027714;28;20024;-61
2021/12/03 02:39:32;;;;;;;19.13;5.28;;;6.50;90.00;;;;;;5043903;28;20036;-60
2021/12/03 02:41:58;;;;;;;17.40;5.60;;;6.50;90.00;;;;;;5027824;28;20047;-60
2021/12/03 02:44:23;;;;;;;23.70;5.63;;;6.50;90.00;;;;;;5012765;28;20207;-60
2021/12/03 02:46:49;;;;;;;18.25;6.18;;;6.50;90.00;;;;;;5012912;28;20052;-60
2021/12/03 02:49:15;;;;;;;13.95;5.28;;;6.50;90.10;;;;;;5027458;28;20040;-60
2021/12/03 02:51:44;;;;;;;14.90;5.65;;;6.50;90.00;;;;;;5027746;28;20033;-60
2021/12/03 02:54:10;;;;;;;14.98;5.10;;;6.50;89.90;;;;;;5011260;28;20035;-60
2021/12/03 02:56:35;;;;;;;16.05;5.20;;;6.50;89.80;;;;;;5027883;28;20047;-61
2021/12/03 02:59:01;;;;;;;23.17;5.47;;;6.50;89.80;;;;;;5011285;28;20037;-60
2021/12/03 03:01:27;;;;;;;15.55;4.38;;;6.50;89.70;;;;;;5010368;28;20475;-60
2021/12/03 03:03:52;;;;;;;16.85;4.40;;;6.50;89.60;;;;;;5022834;28;20120;-60
2021/12/03 03:06:18;;;;;;;13.88;4.88;;;6.50;89.60;;;;;;5004885;28;20021;-60
2021/12/03 03:08:44;;;;;;;14.77;4.53;;;6.50;89.50;;;;;;5032611;28;20116;-60
2021/12/03 03:11:10;;;;;;;13.27;4.88;;;6.50;89.50;;;;;;5025163;28;20029;-60
2021/12/03 03:13:36;;;;;;;19.02;5.13;;;6.50;89.60;;;;;;5025185;28;20039;-60
2021/12/03 03:16:02;;;;;;;13.77;5.00;;;6.50;89.60;;;;;;5007287;28;20052;-61
2021/12/03 03:18:28;;;;;;;15.57;4.55;;;6.40;89.60;;;;;;4997395;28;20033;-60
2021/12/03 03:20:55;;;;;;;18.73;5.22;;;6.40;89.60;;;;;;5019069;28;20709;-61
2021/12/03 03:23:21;;;;;;;13.85;5.20;;;6.40;89.50;;;;;;5000766;28;20091;-60
2021/12/03 03:25:47;;;;;;;11.35;4.18;;;6.40;89.80;;;;;;5008978;28;20044;-61
2021/12/03 03:28:12;;;;;;;20.95;5.20;;;6.40;89.90;;;;;;5006788;28;20027;-61
2021/12/03 03:30:39;;;;;;;16.77;5.10;;;6.40;89.90;;;;;;5023541;28;20417;-60
2021/12/03 03:33:05;;;;;;;13.82;5.00;;;6.40;90.00;;;;;;5022589;28;20550;-60
2021/12/03 03:35:30;;;;;;;16.98;4.72;;;6.40;90.00;;;;;;5017902;28;20041;-60
2021/12/03 03:37:56;;;;;;;13.57;4.88;;;6.40;90.00;;;;;;5041863;28;20128;-61
2021/12/03 03:40:21;;;;;;;12.20;4.85;;;6.40;89.80;;;;;;5022947;28;20550;-60
2021/12/03 03:42:47;;;;;;;7.28;4.35;;;6.40;90.00;;;;;;5007498;28;20040;-60
2021/12/03 03:45:14;;;;;;;8.57;4.32;;;6.40;89.90;;;;;;5040902;28;20021;-60
2021/12/03 03:47:40;;;;;;;17.88;4.53;;;6.40;89.70;;;;;;5007224;28;20128;-60
2021/12/03 03:50:06;;;;;;;15.23;4.55;;;6.40;89.90;;;;;;5023009;28;20228;-61
2021/12/03 03:52:31;;;;;;;13.73;5.47;;;6.40;89.70;;;;;;5040787;28;20055;-60
2021/12/03 03:54:57;;;;;;;13.43;4.57;;;6.40;89.90;;;;;;5023794;28;20540;-61
2021/12/03 03:57:23;;;;;;;9.82;4.55;;;6.40;89.80;;;;;;5006595;28;20110;-61
2021/12/03 03:59:48;;;;;;;9.40;3.85;;;6.40;89.70;;;;;;5039052;28;20033;-60
2021/12/03 04:02:14;;;;;;;12.93;4.00;;;6.40;89.60;;;;;;5023334;28;20078;-60
2021/12/03 04:04:39;;;;;;;10.57;4.68;;;6.30;89.50;;;;;;5006722;28;20063;-61
2021/12/03 04:07:05;;;;;;;15.52;4.40;;;6.30;89.30;;;;;;5022174;28;20029;-60
2021/12/03 04:09:30;;;;;;;11.10;4.57;;;6.30;89.30;;;;;;5021544;28;20039;-60
2021/12/03 04:11:57;;;;;;;12.30;5.15;;;6.30;89.50;;;;;;5039314;28;20041;-60
2021/12/03 04:14:22;;;;;;;9.90;4.93;;;6.30;89.50;;;;;;5023441;28;20033;-60
2021/12/03 04:16:48;;;;;;;15.00;4.72;;;6.30;89.40;;;;;;5019532;28;20025;-60
2021/12/03 04:19:14;;;;;;;10.52;4.72;;;6.30;89.40;;;;;;5038598;28;20025;-60
2021/12/03 04:21:39;;;;;;;11.52;4.28;;;6.30;89.30;;;;;;5005761;28;20056;-61
2021/12/03 04:24:05;;;;;;;8.13;4.30;;;6.30;89.30;;;;;;5007521;28;20473;-61
2021/12/03 04:26:31;;;;;;;13.07;4.85;;;6.30;89.30;;;;;;5034743;28;20453;-60
2021/12/03 04:28:56;;;;;;;10.85;4.07;;;6.30;89.20;;;;;;5055203;28;20029;-61
2021/12/03 04:31:22;;;;;;;9.15;4.18;;;6.30;89.20;;;;;;5024804;28;20307;-60
2021/12/03 04:33:47;;;;;;;9.18;3.60;;;6.30;89.20;;;;;;5006495;28;20595;-60
2021/12/03 04:36:13;;;;;;;6.72;3.95;;;6.30;89.20;;;;;;5006412;28;20040;-67
2021/12/03 04:38:38;;;;;;;9.48;4.30;;;6.30;89.10;;;;;;5005943;28;20309;-61
2021/12/03 04:41:04;;;;;;;9.77;3.97;;;6.20;89.00;;;;;;5026021;28;20544;-61
2021/12/03 04:43:30;;;;;;;7.10;4.05;;;6.30;89.00;;;;;;5012675;28;20112;-60
2021/12/03 04:45:55;;;;;;;8.98;3.67;;;6.30;89.00;;;;;;5025575;28;20132;-61
2021/12/03 04:48:21;;;;;;;9.50;3.40;;;6.30;89.10;;;;;;5042551;28;20021;-61
2021/12/03 04:50:46;;;;;;;9.68;4.20;;;6.20;89.00;;;;;;5010976;28;20021;-61
2021/12/03 04:53:12;;;;;;;11.57;4.15;;;6.20;89.10;;;;;;5027639;28;20048;-61
2021/12/03 04:55:38;;;;;;;7.72;3.95;;;6.20;89.30;;;;;;5010470;28;20032;-60
2021/12/03 04:58:04;;;;;;;12.30;3.83;;;6.20;89.30;;;;;;5012596;28;20749;-60
2021/12/03 05:00:35;;;;;;;10.82;3.80;;;6.20;89.40;;;;;;5010459;28;20029;-60
2021/12/03 05:03:01;;;;;;;11.27;4.18;;;6.30;89.50;;;;;;5026803;28;20122;-61
2021/12/03 05:05:31;;;;;;;10.02;4.00;;;6.20;89.50;;;;;;5008508;28;20728;-61
2021/12/03 05:08:02;;;;;;;8.88;3.78;;;6.20;90.00;;;;;;5028674;28;20021;-60
2021/12/03 05:10:28;;;;;;;10.52;4.20;;;6.20;89.50;;;;;;5011824;28;20071;-60
2021/12/03 05:12:59;;;;;;;12.68;3.88;;;6.20;89.50;;;;;;5026689;28;20059;-61
2021/12/03 05:15:25;;;;;;;11.55;4.00;;;6.20;89.50;;;;;;5043045;28;20116;-60
2021/12/03 05:17:50;;;;;;;32.25;6.32;;;6.20;89.60;;;;;;5010234;28;20150;-60
2021/12/03 05:20:16;;;;;;;30.27;5.43;;;6.20;89.60;;;;;;5034772;28;20051;-61
2021/12/03 05:22:41;;;;;;;27.63;5.32;;;6.20;89.70;;;;;;5028766;28;20029;-60
2021/12/03 05:25:07;;;;;;;41.72;6.57;;;6.10;89.80;;;;;;5010474;28;20029;-60
2021/12/03 05:27:33;;;;;;;58.92;8.20;;;6.10;89.80;;;;;;5041758;28;20067;-61
2021/12/03 05:29:58;;;;;;;178.40;16.27;;;6.10;89.80;;;;;;5009697;28;20102;-60
2021/12/03 05:32:24;;;;;;;248.70;21.85;;;6.10;89.90;;;;;;5009941;28;20126;-60
2021/12/03 05:34:50;;;;;;;191.88;19.02;;;6.10;90.00;;;;;;5010783;28;20083;-60
2021/12/03 05:37:15;;;;;;;157.40;17.20;;;6.10;90.00;;;;;;5022653;28;20028;-61
2021/12/03 05:39:41;;;;;;;187.63;15.82;;;6.10;90.00;;;;;;5009627;28;20048;-60
2021/12/03 05:42:07;;;;;;;163.57;15.52;;;6.10;90.00;;;;;;5010379;28;20484;-60
2021/12/03 05:44:32;;;;;;;157.82;16.35;;;6.10;90.00;;;;;;5008865;28;20028;-60
2021/12/03 05:46:58;;;;;;;138.85;13.43;;;6.10;90.00;;;;;;5010470;28;20269;-60
2021/12/03 05:49:23;;;;;;;132.75;13.18;;;6.10;90.30;;;;;;5010314;28;20080;-61
2021/12/03 05:51:49;;;;;;;146.85;12.60;;;6.10;90.00;;;;;;5008048;28;20028;-61
2021/12/03 05:54:14;;;;;;;127.60;11.98;;;6.10;90.00;;;;;;5022465;28;20361;-62
2021/12/03 05:56:40;;;;;;;135.10;13.02;;;6.00;90.00;;;;;;5025688;28;20055;-60
2021/12/03 05:59:05;;;;;;;153.38;14.60;;;6.10;90.30;;;;;;5027257;28;20122;-60
2021/12/03 06:01:31;;;;;;;108.65;12.27;;;6.10;90.10;;;;;;5011611;28;20499;-61
2021/12/03 06:03:56;;;;;;;120.55;12.35;;;6.00;90.10;;;;;;5004790;28;20508;-60
2021/12/03 06:06:22;;;;;;;113.40;11.32;;;6.00;90.10;;;;;;5005449;28;20545;-61
2021/12/03 06:08:48;;;;;;;110.82;10.75;;;6.00;90.00;;;;;;5020281;28;20473;-60
2021/12/03 06:11:13;;;;;;;93.78;11.27;;;6.00;90.00;;;;;;5018960;28;20396;-60
2021/12/03 06:13:39;;;;;;;97.32;12.45;;;6.00;90.10;;;;;;5043260;28;20021;-61
2021/12/03 06:16:09;;;;;;;78.38;10.43;;;6.00;90.10;;;;;;5026951;28;20229;-60
2021/12/03 06:18:34;;;;;;;88.82;11.90;;;6.00;90.00;;;;;;5008179;28;20059;-62
2021/12/03 06:21:01;;;;;;;70.45;9.88;;;6.00;90.00;;;;;;5023414;28;20037;-61
2021/12/03 06:23:27;;;;;;;91.05;11.45;;;6.00;90.00;;;;;;5007836;28;20146;-60
2021/12/03 06:25:52;;;;;;;79.82;10.70;;;6.00;89.90;;;;;;5024452;28;20112;-61
2021/12/03 06:28:18;;;;;;;85.13;9.85;;;6.00;89.90;;;;;;5006919;28;20612;-60
2021/12/03 06:30:44;;;;;;;82.07;11.00;;;6.00;90.00;;;;;;5008299;28;20078;-60
2021/12/03 06:33:09;;;;;;;64.43;10.27;;;6.00;90.00;;;;;;5042028;28;20037;-60
2021/12/03 06:35:35;;;;;;;86.53;10.02;;;5.90;90.10;;;;;;5009248;28;20369;-60
2021/12/03 06:38:00;;;;;;;66.88;9.80;;;5.90;90.10;;;;;;5008605;28;20128;-60
2021/12/03 06:40:26;;;;;;;69.40;10.02;;;5.90;90.20;;;;;;5009420;28;20092;-60
2021/12/03 06:42:52;;;;;;;64.85;8.75;;;5.90;90.30;;;;;;5025848;28;20025;-61
2021/12/03 06:45:18;;;;;;;104.20;10.73;;;5.90;90.50;;;;;;5025120;28;20028;-61
2021/12/03 06:47:43;;;;;;;93.80;11.18;;;5.90;90.60;;;;;;5008399;28;20020;-60
2021/12/03 06:50:10;;;;;;;76.93;10.15;;;5.90;90.70;;;;;;5008449;28;20098;-61
2021/12/03 06:52:38;;;;;;;104.75;12.35;;;5.90;90.60;;;;;;5009414;28;20036;-60
2021/12/03 06:55:05;;;;;;;87.72;10.60;;;5.90;90.60;;;;;;5049078;28;20056;-60
2021/12/03 06:57:31;;;;;;;73.93;10.15;;;5.90;90.50;;;;;;5040410;28;20476;-60
2021/12/03 06:59:56;;;;;;;60.13;9.48;;;5.90;90.60;;;;;;5024480;28;20086;-61
2021/12/03 07:02:22;;;;;;;81.50;9.68;;;5.90;90.60;;;;;;5021342;28;20037;-61
2021/12/03 07:04:48;;;;;;;60.03;8.77;;;5.90;90.60;;;;;;5007773;28;20241;-61
2021/12/03 07:07:13;;;;;;;99.55;10.55;;;5.90;90.50;;;;;;5023642;28;20215;-61
2021/12/03 07:09:39;;;;;;;81.15;11.00;;;5.90;90.50;;;;;;5020526;28;20059;-60
2021/12/03 07:12:05;;;;;;;63.10;9.93;;;5.90;90.50;;;;;;5007302;28;20075;-60
2021/12/03 07:14:30;;;;;;;63.92;10.35;;;5.90;90.50;;;;;;5021731;28;20078;-61
2021/12/03 07:16:59;;;;;;;57.25;9.57;;;5.80;90.50;;;;;;5023501;28;20044;-60
2021/12/03 07:19:24;;;;;;;46.75;8.77;;;5.80;90.40;;;;;;5007993;28;20042;-61
2021/12/03 07:21:50;;;;;;;50.15;9.55;;;5.80;90.40;;;;;;5021322;28;20075;-61
2021/12/03 07:24:15;;;;;;;52.42;8.68;;;5.80;90.40;;;;;;5008055;28;20028;-62
2021/12/03 07:26:41;;;;;;;50.45;8.48;;;5.80;90.40;;;;;;5004545;28;20035;-61
2021/12/03 07:29:06;;;;;;;46.85;8.95;;;6.00;90.40;;;;;;5022237;28;20029;-62
2021/12/03 07:31:32;;;;;;;46.60;8.07;;;5.80;90.40;;;;;;5008230;28;20029;-62
2021/12/03 07:33:58;;;;;;;51.50;8.07;;;5.80;90.40;;;;;;5010134;28;20039;-61
2021/12/03 07:36:23;;;;;;;45.58;8.27;;;5.80;90.40;;;;;;5023658;28;20444;-62
2021/12/03 07:38:49;;;;;;;42.03;8.00;;;5.70;90.30;;;;;;5023523;28;20025;-61
2021/12/03 07:41:14;;;;;;;43.30;8.23;;;5.80;90.40;;;;;;5007360;28;20724;-62
2021/12/03 07:43:40;;;;;;;38.47;7.20;;;5.80;90.30;;;;;;5040941;28;20033;-61
2021/12/03 07:46:06;;;;;;;37.53;6.68;;;5.80;90.30;;;;;;5025272;28;20048;-61
2021/12/03 07:48:31;;;;;;;53.75;7.95;;;5.80;90.30;;;;;;5025100;28;20056;-62
2021/12/03 07:50:57;;;;;;;59.85;9.00;;;5.80;90.30;;;;;;5023057;28;20563;-62
2021/12/03 07:53:23;;;;;;;42.50;7.82;;;5.70;90.30;;;;;;5024458;28;20384;-61
2021/12/03 07:55:50;;;;;;;29.95;7.03;;;5.70;90.30;;;;;;5022084;28;20674;-63
2021/12/03 07:58:16;;;;;;;48.60;7.97;;;5.80;90.30;;;;;;5008429;28;20045;-62
2021/12/03 08:00:41;;;;;;;100.68;9.45;;;5.70;90.40;;;;;;5009288;28;20178;-61
2021/12/03 08:03:07;;;;;;;55.40;8.48;;;5.80;90.40;;;;;;5006552;28;20044;-61
2021/12/03 08:05:33;;;;;;;46.42;7.80;;;5.80;90.40;;;;;;5023453;28;20524;-61
2021/12/03 08:07:59;;;;;;;46.58;7.35;;;5.70;90.30;;;;;;5010917;28;20644;-61
2021/12/03 08:10:25;;;;;;;45.83;7.97;;;5.70;90.30;;;;;;5022985;28;20052;-62
2021/12/03 08:12:51;;;;;;;41.30;6.65;;;5.80;90.30;;;;;;5024055;28;20025;-61
2021/12/03 08:15:16;;;;;;;43.33;7.43;;;5.70;90.30;;;;;;5019685;28;20057;-62
2021/12/03 08:17:42;;;;;;;41.55;7.95;;;5.70;90.20;;;;;;5019905;28;20409;-61
2021/12/03 08:20:08;;;;;;;37.20;7.03;;;5.70;90.20;;;;;;5021127;28;20033;-62
2021/12/03 08:22:34;;;;;;;47.10;7.82;;;5.70;90.30;;;;;;5004946;28;20029;-62
2021/12/03 08:25:00;;;;;;;51.75;7.50;;;5.80;90.30;;;;;;5018554;28;20048;-61
2021/12/03 08:27:25;;;;;;;50.58;7.80;;;5.70;90.30;;;;;;5003779;28;20060;-61
2021/12/03 08:29:51;;;;;;;44.35;7.57;;;5.70;90.30;;;;;;5035047;28;20039;-62
2021/12/03 08:32:16;;;;;;;62.40;8.85;;;5.70;90.40;;;;;;5003665;28;20041;-61
2021/12/03 08:34:42;;;;;;;60.92;9.00;;;5.70;90.30;;;;;;5036918;28;20175;-61
2021/12/03 08:37:09;;;;;;;31.58;7.07;;;5.70;90.30;;;;;;5021157;28;20395;-62
2021/12/03 08:39:34;;;;;;;49.95;7.35;;;5.70;90.30;;;;;;5020307;28;20029;-61
2021/12/03 08:42:00;;;;;;;50.03;7.93;;;5.70;90.30;;;;;;5016272;28;20440;-62
2021/12/03 08:44:25;;;;;;;35.00;7.25;;;5.80;90.40;;;;;;4997866;28;20071;-62
2021/12/03 08:46:57;;;;;;;52.88;9.63;;;5.70;90.30;;;;;;5031245;28;20060;-62
2021/12/03 08:49:29;;;;;;;64.93;9.88;;;5.70;90.30;;;;;;5017855;28;20036;-62
2021/12/03 08:52:49;;;;;;;61.40;9.55;;;5.70;90.30;;;;;;5006928;28;20091;-63
2021/12/03 08:54:54;;;;;;;;;;;5.80;90.30;;;;;;5023445;28;20634;-61
2021/12/03 08:57:21;;;;;;;;;;;5.80;90.20;;;;;;5050152;28;20998;-61
2021/12/03 08:59:46;;;;;;;;;;;5.80;90.10;;;;;;5053126;28;19913;-62
2021/12/03 09:02:12;;;;;;;;;;;5.80;90.10;;;;;;5053797;28;19919;-61
2021/12/03 09:04:37;;;;;;;;;;;5.80;90.10;;;;;;5051044;28;20348;-62
2021/12/03 09:07:04;;;;;;;;;;;5.70;90.10;;;;;;5027339;28;19977;-61
2021/12/03 09:09:30;;;;;;;;;;;5.70;90.00;;;;;;5059484;28;19916;-61
2021/12/03 09:11:55;;;;;;;;;;;5.70;90.00;;;;;;5039161;28;19913;-62
2021/12/03 09:14:37;;;;;;;;;;;5.80;90.00;;;;;;5024809;28;19912;-61
2021/12/03 09:25:06;;;;;;;;;;;5.80;90.00;;;;;;5053311;28;19919;-62
2021/12/03 09:27:32;;;;;;;;;;;5.90;90.00;;;;;;5049148;28;19923;-62
2021/12/03 09:29:57;;;;;;;;;;;5.90;89.90;;;;;;5046192;28;19909;-61
2021/12/03 09:32:27;;;;;;;;;;;5.90;89.90;;;;;;5062839;28;20291;-61
2021/12/03 09:34:52;;;;;;;;;;;5.90;89.90;;;;;;5045676;28;20310;-62
2021/12/03 09:37:18;;;;;;;;;;;5.80;89.80;;;;;;5062579;28;19912;-62
2021/12/03 09:39:45;;;;;;;;;;;5.80;89.70;;;;;;5044333;28;19928;-62
2021/12/03 09:42:10;;;;;;;;;;;5.60;89.70;;;;;;5062501;28;19971;-61
2021/12/03 09:44:39;;;;;;;;;;;5.80;89.90;;;;;;5045918;28;19955;-61
2021/12/03 09:47:05;;;;;;;;;;;5.90;89.90;;;;;;5047994;28;19953;-62
2021/12/03 09:49:35;;;;;;;;;;;5.90;89.90;;;;;;5064368;28;19916;-62
2021/12/03 09:54:46;;;;;;;;;;;5.90;90.00;;;;;;5065217;28;20542;-62
2021/12/03 09:57:14;;;;;;;;;;;5.90;90.00;;;;;;5062979;28;19908;-62
2021/12/03 10:05:24;;;;;;;;;;;5.90;90.00;;;;;;5061783;28;19973;-61
2021/12/03 10:16:04;;;;;;;;;;;5.90;90.20;;;;;;5061678;28;19939;-61
2021/12/03 10:18:32;;;;;;;;;;;5.90;90.10;;;;;;5047143;28;19927;-62
2021/12/03 10:21:07;;;;;;;;;;;5.90;90.20;;;;;;5059360;28;19924;-61
2021/12/03 10:35:01;;;;;;;;;;;6.00;90.20;;;;;;5049408;28;19957;-61
2021/12/03 10:43:22;;;;;;;;;;;6.10;90.20;;;;;;5039584;28;19920;-61
2021/12/03 10:54:41;;;;;;;;;;;6.20;90.10;;;;;;5059583;28;20378;-61
2021/12/03 10:56:54;;;;;;;;;;;6.20;90.10;;;;;;5047724;28;19969;-62
2021/12/03 11:04:35;;;;;;;;;;;6.20;90.20;;;;;;5063707;28;19923;-61
2021/12/03 11:29:37;;;;;;;;;;;6.40;90.10;;;;;;5030356;28;19927;-62
2021/12/03 11:48:59;;;;;;;;;;;6.40;89.50;;;;;;5041210;28;19939;-62
2021/12/03 11:52:00;;;;;;;;;;;6.50;89.60;;;;;;5042686;28;19918;-62
2021/12/03 11:58:05;;;;;;;;;;;6.50;89.60;;;;;;5036396;28;19946;-62
2021/12/03 12:14:27;;;;;;;;;;;6.70;89.10;;;;;;5060035;28;19919;-61
2021/12/03 12:18:52;;;;;;;;;;;6.70;89.10;;;;;;5061500;28;19926;-62
2021/12/03 12:24:07;;;;;;;;;;;6.70;88.80;;;;;;5054628;28;19928;-61
2021/12/03 12:35:17;;;;;;;;;;;6.70;88.40;;;;;;5061446;28;19915;-61
2021/12/03 12:44:08;;;;;;;;;;;6.70;88.10;;;;;;5045107;28;20387;-61
2021/12/03 13:18:54;;;;;;;;;;;6.90;87.10;;;;;;4994503;28;19932;-62
2021/12/03 13:35:50;;;;;;;;;;;7.00;86.90;;;;;;5062714;28;19944;-61
2021/12/03 14:02:43;;;;;;;;;;;7.10;86.80;;;;;;5043727;28;19912;-62
2021/12/03 14:04:59;;;;;;;;;;;7.10;86.70;;;;;;5050475;28;21363;-61
2021/12/03 14:21:36;;;;;;;;;;;7.20;86.30;;;;;;5044195;28;19941;-62
2021/12/03 14:25:17;;;;;;;;;;;7.20;86.30;;;;;;5061438;28;19966;-61
2021/12/03 14:28:14;;;;;;;;;;;7.20;86.10;;;;;;5058781;28;19973;-62
2021/12/03 14:37:33;;;;;;;;;;;7.20;86.10;;;;;;5043441;28;20556;-62
2021/12/03 14:40:14;;;;;;;;;;;7.30;86.10;;;;;;5057730;28;19924;-61
2021/12/03 14:56:00;;;;;;;;;;;7.30;85.90;;;;;;5055933;28;19927;-60
2021/12/03 15:05:00;;;;;;;;;;;7.30;85.80;;;;;;5046854;28;19927;-60
2021/12/03 15:07:16;;;;;;;;;;;7.30;85.80;;;;;;5048266;28;19916;-60
2021/12/03 15:09:44;;;;;;;;;;;7.30;85.80;;;;;;5043760;28;19959;-60
2021/12/03 15:31:01;;;;;;;;;;;7.40;85.90;;;;;;5057223;28;19915;-60
2021/12/03 15:33:39;;;;;;;;;;;7.40;85.60;;;;;;5027996;28;19924;-61
2021/12/03 15:36:08;;;;;;;;;;;7.50;85.90;;;;;;5041267;28;19961;-60
2021/12/03 15:55:15;;;;;;;;;;;7.50;85.60;;;;;;5050034;28;20124;-60
2021/12/03 16:08:19;;;;;;;;;;;7.50;85.70;;;;;;5047944;28;19916;-60
2021/12/03 16:46:05;;;;;;;;;;;7.50;85.40;;;;;;5049845;28;20091;-60
2021/12/03 16:53:47;;;;;;;;;;;7.60;85.40;;;;;;5054913;28;20389;-60
2021/12/03 16:56:17;;;;;;;;;;;7.60;85.60;;;;;;5051214;28;20711;-60
2021/12/03 16:58:43;;;;;;;;;;;7.70;85.50;;;;;;5051228;28;19912;-60
2021/12/03 17:01:25;;;;;;;;;;;7.70;85.50;;;;;;5043379;28;19925;-60
2021/12/03 17:04:18;;;;;;;;;;;7.70;85.50;;;;;;5012023;28;19920;-60
2021/12/03 17:12:16;;;;;;;;;;;7.90;84.90;;;;;;5052940;28;19969;-61
2021/12/03 17:15:14;;;;;;;;;;;7.90;84.60;;;;;;5040146;28;20446;-62
2021/12/03 17:20:51;;;;;;;;;;;7.90;84.30;;;;;;5043169;28;19920;-60
2021/12/03 17:23:53;;;;;;;;;;;8.00;84.20;;;;;;5047182;28;19923;-61
2021/12/03 17:32:11;;;;;;;;;;;8.00;84.60;;;;;;5054149;28;19990;-59
2021/12/03 17:56:56;;;;;;;;;;;8.10;84.00;;;;;;4946112;28;20322;-62
2021/12/03 17:59:26;;;;;;;;;;;8.10;84.00;;;;;;5020713;28;20027;-62
2021/12/03 18:15:11;;;;;;;;;;;8.20;83.50;;;;;;5053539;28;19920;-60
2021/12/03 18:43:17;;;;;;;;;;;8.20;83.60;;;;;;5056974;28;20079;-60
2021/12/03 18:48:17;;;;;;;;;;;8.20;83.60;;;;;;5034015;28;20078;-62
2021/12/03 18:56:19;;;;;;;;;;;8.30;83.00;;;;;;5039506;28;20602;-61
2021/12/03 18:58:45;;;;;;;;;;;8.30;82.60;;;;;;5037777;28;19921;-61
2021/12/03 19:01:12;;;;;;;;;;;8.40;82.60;;;;;;5051268;28;19924;-61
2021/12/03 19:06:20;;;;;;;;;;;8.40;82.90;;;;;;5048433;28;19931;-60
2021/12/03 19:08:55;;;;;;;;;;;8.40;82.90;;;;;;5037807;28;20295;-61
2021/12/03 19:11:37;;;;;;;;;;;8.40;82.80;;;;;;5041376;28;19908;-60
2021/12/03 19:14:02;;;;;;;;;;;8.40;83.30;;;;;;5041769;28;21232;-61
2021/12/03 19:16:28;;;;;;;;;;;8.40;83.70;;;;;;5051372;28;19915;-61
2021/12/03 19:18:55;;;;;;;;;;;8.30;83.10;;;;;;5058201;28;19912;-61
2021/12/03 19:21:25;;;;;;;;;;;8.40;83.20;;;;;;5032924;28;19925;-61
2021/12/03 19:24:00;;;;;;;;;;;8.40;83.00;;;;;;5042773;28;19920;-61
2021/12/03 19:26:26;;;;;;;;;;;8.40;83.10;;;;;;5056731;28;20015;-61
2021/12/03 19:28:51;;;;;;;;;;;8.40;83.30;;;;;;5026051;28;20015;-61
2021/12/03 19:31:17;;;;;;;;;;;8.40;83.80;;;;;;5056600;28;19916;-61
2021/12/03 19:33:42;;;;;;;;;;;8.30;83.70;;;;;;5044775;28;19912;-61
2021/12/03 19:36:09;;;;;;;;;;;8.30;83.50;;;;;;5057737;28;20383;-60
2021/12/03 19:38:37;;;;;;;;;;;8.30;83.60;;;;;;5054543;28;20323;-61
2021/12/03 19:41:12;;;;;;;;;;;8.30;83.50;;;;;;5056619;28;19970;-61
2021/12/03 19:43:45;;;;;;;;;;;8.30;83.60;;;;;;5043550;28;20014;-61
2021/12/03 19:46:14;;;;;;;;;;;8.20;83.70;;;;;;5055412;28;19916;-60
2021/12/03 19:48:47;;;;;;;;;;;8.20;83.60;;;;;;5054134;28;20027;-61
2021/12/03 19:51:15;;;;;;;;;;;8.20;83.50;;;;;;5042117;28;19913;-61
2021/12/03 19:53:48;;;;;;;;;;;8.20;83.40;;;;;;5060294;28;19912;-61
2021/12/03 19:56:14;;;;;;;;;;;8.20;83.40;;;;;;5058666;28;20006;-61
2021/12/03 19:58:39;;;;;;;;;;;8.20;83.60;;;;;;5043965;28;19912;-61
2021/12/03 20:01:05;;;;;;;;;;;8.10;83.50;;;;;;5051329;28;20011;-61
2021/12/03 20:03:30;;;;;;;;;;;8.10;83.70;;;;;;5058505;28;20787;-61
2021/12/03 20:05:56;;;;;;;;;;;8.10;83.80;;;;;;5039287;28;19923;-61
2021/12/03 20:08:22;;;;;;;;;;;8.10;83.80;;;;;;5042909;28;19919;-61
2021/12/03 20:10:49;;;;;;;;;;;8.10;84.00;;;;;;5040690;28;19916;-61
2021/12/03 20:13:21;;;;;;;;;;;8.10;84.10;;;;;;5042420;28;19937;-60
2021/12/03 20:15:55;;;;;;;;;;;8.10;84.30;;;;;;5050907;28;20461;-61